Time;durP1;ratioP1;P1;durP2;ratioP2;P2;SDS_P1;SDS_P2;PMS_P1;PMS_P2;Temp;Humidity;BMP_temperature;BMP_pressure;BME280_temperature;BME280_humidity;BME280_pressure;Samples;Min_cycle;Max_cycle;Signal;HPM_P1;HPM_P2
2022/08/09 00:01:30;;;;;;;2.13;1.50;;;24.00;44.00;;;;;;5073147;28;20219;-72
2022/08/09 00:03:57;;;;;;;2.47;1.20;;;24.00;43.80;;;;;;5073219;28;20627;-73
2022/08/09 00:06:24;;;;;;;1.35;1.25;;;24.00;43.80;;;;;;5073152;28;20229;-72
2022/08/09 00:08:51;;;;;;;1.25;1.15;;;24.00;44.70;;;;;;5073184;28;20576;-72
2022/08/09 00:11:20;;;;;;;1.33;1.20;;;24.00;44.00;;;;;;5073145;28;20229;-73
2022/08/09 00:13:47;;;;;;;1.40;1.30;;;24.00;44.20;;;;;;5073155;28;20662;-72
2022/08/09 00:16:13;;;;;;;1.35;1.20;;;24.00;44.20;;;;;;5073067;28;20194;-73
2022/08/09 00:18:41;;;;;;;1.48;1.20;;;24.00;44.30;;;;;;5072987;28;20229;-73
2022/08/09 00:21:08;;;;;;;1.50;1.40;;;24.00;43.80;;;;;;5072950;28;20271;-72
2022/08/09 00:23:35;;;;;;;1.58;1.40;;;24.00;44.20;;;;;;5073222;28;20222;-73
2022/08/09 00:26:02;;;;;;;1.90;1.40;;;24.00;43.80;;;;;;5073071;28;20209;-72
2022/08/09 00:28:32;;;;;;;1.35;1.27;;;23.90;43.80;;;;;;5073928;28;20298;-73
2022/08/09 00:31:00;;;;;;;2.53;1.50;;;23.90;43.90;;;;;;5072819;28;20802;-72
2022/08/09 00:33:27;;;;;;;1.40;1.30;;;23.90;43.70;;;;;;5072826;28;20195;-72
2022/08/09 00:35:54;;;;;;;1.40;1.30;;;23.90;44.00;;;;;;5073941;28;20553;-72
2022/08/09 00:38:22;;;;;;;1.30;1.20;;;23.90;44.20;;;;;;5072741;28;20194;-72
2022/08/09 00:40:49;;;;;;;1.42;1.33;;;23.90;44.00;;;;;;5072913;28;20247;-72
2022/08/09 00:43:16;;;;;;;1.50;1.20;;;23.90;44.00;;;;;;5073122;28;20219;-72
2022/08/09 00:45:44;;;;;;;1.42;1.33;;;23.90;43.90;;;;;;5073469;28;20203;-72
2022/08/09 00:48:11;;;;;;;1.50;1.40;;;23.80;43.80;;;;;;5056468;28;20226;-73
2022/08/09 00:50:38;;;;;;;1.40;1.20;;;23.80;43.80;;;;;;5073574;28;20206;-72
2022/08/09 00:53:06;;;;;;;1.40;1.30;;;23.80;43.90;;;;;;5073258;28;20217;-72
2022/08/09 00:55:33;;;;;;;1.48;1.30;;;23.80;44.30;;;;;;5073373;28;20194;-72
2022/08/09 00:58:01;;;;;;;1.98;1.30;;;23.80;44.00;;;;;;5073303;28;20818;-72
2022/08/09 01:00:28;;;;;;;1.65;1.50;;;23.70;44.00;;;;;;5073241;28;20194;-72
2022/08/09 01:02:58;;;;;;;1.40;1.30;;;23.70;43.90;;;;;;5073459;28;20747;-72
2022/08/09 01:05:29;;;;;;;1.45;1.35;;;23.70;44.00;;;;;;5073875;28;20194;-72
2022/08/09 01:07:58;;;;;;;1.55;1.40;;;23.70;44.00;;;;;;5072839;28;20183;-73
2022/08/09 01:10:29;;;;;;;1.30;1.20;;;23.70;44.10;;;;;;5072372;28;20273;-72
2022/08/09 01:12:59;;;;;;;1.50;1.40;;;23.70;44.20;;;;;;5072391;28;20229;-72
2022/08/09 01:15:27;;;;;;;1.45;1.35;;;23.70;44.20;;;;;;5072289;28;20687;-72
2022/08/09 01:17:59;;;;;;;2.42;1.50;;;23.70;44.20;;;;;;5072437;28;20202;-72
2022/08/09 01:20:32;;;;;;;2.78;1.40;;;23.70;44.20;;;;;;5072342;28;20195;-72
2022/08/09 01:23:08;;;;;;;1.50;1.40;;;23.70;44.20;;;;;;5073213;28;20210;-74
2022/08/09 01:26:11;;;;;;;1.63;1.52;;;23.70;44.20;;;;;;5073098;28;20191;-74
2022/08/09 01:28:40;;;;;;;1.63;1.52;;;23.70;44.20;;;;;;4999596;28;20586;-73
2022/08/09 01:31:09;;;;;;;1.55;1.33;;;23.60;44.10;;;;;;5060747;28;20248;-72
2022/08/09 01:33:52;;;;;;;1.45;1.35;;;23.60;44.20;;;;;;5073801;28;20542;-73
2022/08/09 01:36:21;;;;;;;1.40;1.30;;;23.60;44.20;;;;;;5076853;22;20600;-75
2022/08/09 01:38:49;;;;;;;2.47;1.50;;;23.60;44.20;;;;;;5037014;28;20199;-75
2022/08/09 01:41:17;;;;;;;1.67;1.58;;;23.60;44.30;;;;;;5038136;28;20221;-75
2022/08/09 01:43:47;;;;;;;1.42;1.33;;;23.60;44.20;;;;;;5035418;28;20222;-75
2022/08/09 01:46:14;;;;;;;1.40;1.30;;;23.50;44.20;;;;;;5035525;28;20303;-75
2022/08/09 01:48:42;;;;;;;1.50;1.40;;;23.50;44.40;;;;;;5019180;28;20668;-75
2022/08/09 01:51:09;;;;;;;1.50;1.40;;;23.50;44.40;;;;;;5036331;28;20222;-74
2022/08/09 01:53:36;;;;;;;1.50;1.40;;;23.50;44.40;;;;;;5048183;28;20188;-75
2022/08/09 01:56:03;;;;;;;1.42;1.30;;;23.50;44.40;;;;;;5061376;28;20168;-74
2022/08/09 01:58:30;;;;;;;1.50;1.40;;;23.50;44.50;;;;;;5050520;28;20195;-75
2022/08/09 02:00:59;;;;;;;1.60;1.50;;;23.50;44.60;;;;;;5039440;28;20206;-75
2022/08/09 02:03:27;;;;;;;1.98;1.42;;;23.50;44.60;;;;;;5039134;28;20211;-74
2022/08/09 02:05:54;;;;;;;1.65;1.25;;;23.50;44.60;;;;;;5039050;28;20203;-74
2022/08/09 02:08:20;;;;;;;1.67;1.58;;;23.40;44.60;;;;;;5039001;28;20199;-75
2022/08/09 02:10:48;;;;;;;1.50;1.40;;;23.40;44.60;;;;;;5038746;28;20195;-74
2022/08/09 02:13:16;;;;;;;1.92;1.70;;;23.40;44.70;;;;;;5038933;28;20284;-75
2022/08/09 02:15:49;;;;;;;1.73;1.58;;;23.40;44.70;;;;;;5038661;28;20211;-74
2022/08/09 02:18:19;;;;;;;1.98;1.80;;;23.40;44.80;;;;;;5040168;28;20200;-74
2022/08/09 02:20:48;;;;;;;2.15;1.50;;;23.40;44.80;;;;;;5038727;28;20203;-74
2022/08/09 02:23:19;;;;;;;1.67;1.58;;;23.40;45.00;;;;;;5057379;28;20689;-75
2022/08/09 02:25:48;;;;;;;1.73;1.60;;;23.40;44.90;;;;;;5038768;28;20200;-74
2022/08/09 02:28:16;;;;;;;2.25;1.60;;;23.30;44.80;;;;;;5038831;28;20199;-74
2022/08/09 02:30:45;;;;;;;1.58;1.48;;;23.40;44.90;;;;;;5056357;28;20251;-74
2022/08/09 02:33:15;;;;;;;1.80;1.70;;;23.40;45.00;;;;;;5038545;28;20207;-75
2022/08/09 02:35:44;;;;;;;1.95;1.85;;;23.30;45.00;;;;;;5038450;28;20218;-74
2022/08/09 02:38:11;;;;;;;1.50;1.38;;;23.30;45.00;;;;;;5038292;28;20286;-75
2022/08/09 02:40:38;;;;;;;1.92;1.70;;;23.30;45.00;;;;;;5038475;28;20199;-75
2022/08/09 02:43:05;;;;;;;1.67;1.58;;;23.30;45.00;;;;;;5038288;28;20226;-75
2022/08/09 02:45:34;;;;;;;1.73;1.55;;;23.30;45.00;;;;;;5038455;28;20200;-74
2022/08/09 02:48:08;;;;;;;1.58;1.48;;;23.30;45.00;;;;;;5056321;28;20187;-75
2022/08/09 02:50:38;;;;;;;1.58;1.48;;;23.30;45.10;;;;;;5038432;28;20189;-74
2022/08/09 02:53:09;;;;;;;1.80;1.70;;;23.30;45.10;;;;;;5038063;28;20223;-75
2022/08/09 02:55:36;;;;;;;1.70;1.60;;;23.20;45.60;;;;;;5038184;28;20195;-75
2022/08/09 02:58:03;;;;;;;1.70;1.60;;;23.20;45.00;;;;;;5038174;28;20206;-75
2022/08/09 03:00:30;;;;;;;1.70;1.60;;;23.30;45.00;;;;;;5037946;28;20200;-75
2022/08/09 03:02:57;;;;;;;1.40;1.40;;;23.20;45.00;;;;;;5037861;28;20219;-75
2022/08/09 03:05:24;;;;;;;1.63;1.52;;;23.20;45.00;;;;;;5037901;28;20215;-75
2022/08/09 03:07:50;;;;;;;1.60;1.50;;;23.20;45.10;;;;;;5038154;28;20199;-74
2022/08/09 03:10:20;;;;;;;1.98;1.65;;;23.20;44.90;;;;;;5038080;28;20552;-74
2022/08/09 03:12:47;;;;;;;2.05;1.88;;;23.20;44.80;;;;;;5037577;28;20702;-75
2022/08/09 03:15:14;;;;;;;1.60;1.50;;;23.10;44.60;;;;;;5037716;28;20210;-74
2022/08/09 03:17:41;;;;;;;1.60;1.50;;;23.10;44.90;;;;;;5037518;28;20210;-75
2022/08/09 03:20:09;;;;;;;1.67;1.58;;;23.10;45.00;;;;;;5037565;28;20200;-75
2022/08/09 03:22:39;;;;;;;1.88;1.77;;;23.10;45.00;;;;;;5037361;28;20215;-75
2022/08/09 03:25:07;;;;;;;2.05;1.83;;;23.20;45.10;;;;;;5037407;28;20219;-75
2022/08/09 03:27:36;;;;;;;1.95;1.85;;;23.10;45.00;;;;;;5038450;28;20207;-74
2022/08/09 03:30:03;;;;;;;1.65;1.55;;;23.10;44.90;;;;;;5037312;28;20234;-75
2022/08/09 03:32:30;;;;;;;1.60;1.50;;;23.20;45.20;;;;;;5037151;28;20237;-74
2022/08/09 03:34:57;;;;;;;1.70;1.60;;;23.20;45.10;;;;;;5037114;28;20195;-75
2022/08/09 03:37:25;;;;;;;2.38;1.80;;;23.20;45.00;;;;;;5038376;28;20192;-75
2022/08/09 03:39:52;;;;;;;1.80;1.70;;;23.20;44.90;;;;;;5037093;28;20654;-75
2022/08/09 03:42:19;;;;;;;1.92;1.83;;;23.20;44.90;;;;;;5037088;28;20227;-75
2022/08/09 03:44:47;;;;;;;2.25;1.83;;;23.20;44.80;;;;;;5020587;28;20277;-75
2022/08/09 03:47:14;;;;;;;1.80;1.70;;;23.20;44.80;;;;;;5036863;28;20199;-75
2022/08/09 03:49:41;;;;;;;1.95;1.70;;;23.20;44.80;;;;;;5054780;28;20238;-74
2022/08/09 03:52:08;;;;;;;2.03;1.85;;;23.20;44.80;;;;;;5036888;28;20241;-75
2022/08/09 03:54:36;;;;;;;1.70;1.60;;;23.20;44.80;;;;;;5036861;28;20196;-74
2022/08/09 03:57:05;;;;;;;1.92;1.75;;;23.20;44.80;;;;;;5036931;28;20249;-75
2022/08/09 03:59:32;;;;;;;1.80;1.67;;;23.20;44.90;;;;;;5036892;28;20199;-75
2022/08/09 04:02:01;;;;;;;1.88;1.73;;;23.20;44.80;;;;;;5037113;28;20265;-74
2022/08/09 04:04:28;;;;;;;1.80;1.70;;;23.20;44.80;;;;;;5037132;28;20566;-74
2022/08/09 04:06:56;;;;;;;3.65;1.80;;;23.20;44.80;;;;;;5021290;28;20206;-75
2022/08/09 04:09:23;;;;;;;3.50;2.00;;;23.20;44.80;;;;;;5036951;28;20257;-75
2022/08/09 04:12:08;;;;;;;2.03;1.65;;;23.20;44.80;;;;;;5020485;28;20315;-75
2022/08/09 04:14:35;;;;;;;2.00;1.75;;;23.20;44.90;;;;;;5036470;28;20198;-74
2022/08/09 04:17:04;;;;;;;1.60;1.50;;;23.10;44.90;;;;;;5054334;28;20192;-74
2022/08/09 04:19:30;;;;;;;1.83;1.73;;;23.20;45.00;;;;;;5037387;28;20246;-74
2022/08/09 04:21:58;;;;;;;1.90;1.80;;;23.20;45.10;;;;;;5035733;28;20222;-74
2022/08/09 04:24:25;;;;;;;2.05;1.70;;;23.10;44.90;;;;;;5036193;28;20211;-74
2022/08/09 04:26:52;;;;;;;1.80;1.70;;;23.10;45.10;;;;;;5036225;28;20700;-74
2022/08/09 04:29:19;;;;;;;1.80;1.70;;;23.10;45.10;;;;;;5036718;28;20199;-74
2022/08/09 04:31:45;;;;;;;2.05;1.85;;;23.10;45.40;;;;;;5036172;28;20223;-74
2022/08/09 04:34:14;;;;;;;1.80;1.70;;;23.10;45.30;;;;;;5036139;28;20196;-74
2022/08/09 04:36:41;;;;;;;1.98;1.70;;;23.10;45.30;;;;;;5019760;28;20210;-75
2022/08/09 04:39:08;;;;;;;1.90;1.80;;;23.10;45.30;;;;;;5036840;28;20203;-74
2022/08/09 04:41:35;;;;;;;1.95;1.73;;;23.10;45.20;;;;;;5036147;28;20238;-75
2022/08/09 04:44:02;;;;;;;2.58;1.70;;;23.10;45.30;;;;;;5035853;28;20588;-74
2022/08/09 04:46:30;;;;;;;1.90;1.80;;;23.10;45.40;;;;;;5035961;28;20206;-75
2022/08/09 04:48:57;;;;;;;1.80;1.70;;;23.10;45.40;;;;;;5036032;28;20227;-75
2022/08/09 04:51:25;;;;;;;1.77;1.67;;;23.10;45.40;;;;;;5035965;28;20322;-74
2022/08/09 04:53:52;;;;;;;1.95;1.80;;;23.10;45.40;;;;;;5035905;28;20184;-74
2022/08/09 04:56:19;;;;;;;2.53;1.80;;;23.10;45.30;;;;;;5053753;28;20191;-74
2022/08/09 04:58:46;;;;;;;2.10;1.90;;;23.10;45.40;;;;;;5036292;28;20216;-74
2022/08/09 05:01:13;;;;;;;1.90;1.80;;;23.10;45.30;;;;;;5037101;28;20218;-74
2022/08/09 05:03:39;;;;;;;3.53;2.10;;;23.20;45.30;;;;;;5035995;28;20222;-75
2022/08/09 05:06:06;;;;;;;2.88;1.80;;;23.20;45.30;;;;;;5036415;28;20227;-75
2022/08/09 05:08:35;;;;;;;2.03;1.83;;;23.20;45.10;;;;;;5035989;28;20202;-74
2022/08/09 05:11:02;;;;;;;2.17;1.98;;;23.20;45.00;;;;;;5036165;28;20191;-75
2022/08/09 05:13:29;;;;;;;3.33;2.00;;;23.30;44.80;;;;;;5054102;28;20209;-75
2022/08/09 05:15:56;;;;;;;3.13;2.13;;;23.30;44.80;;;;;;5036140;28;20195;-75
2022/08/09 05:18:23;;;;;;;2.50;1.90;;;23.30;45.10;;;;;;5035737;28;20646;-74
2022/08/09 05:20:50;;;;;;;2.15;1.98;;;23.20;45.10;;;;;;5035788;28;20230;-75
2022/08/09 05:23:17;;;;;;;3.78;2.50;;;23.20;45.30;;;;;;5035843;28;20192;-75
2022/08/09 05:25:45;;;;;;;3.15;2.08;;;23.20;45.30;;;;;;5036322;28;20219;-74
2022/08/09 05:28:13;;;;;;;2.33;2.10;;;23.40;45.00;;;;;;5035957;28;20199;-74
2022/08/09 05:30:40;;;;;;;2.20;2.00;;;23.60;44.70;;;;;;5036548;28;20287;-74
2022/08/09 05:33:07;;;;;;;2.28;2.08;;;23.80;44.30;;;;;;5036613;28;20214;-74
2022/08/09 05:35:33;;;;;;;3.30;2.10;;;24.00;44.00;;;;;;5040022;28;20203;-74
2022/08/09 05:38:00;;;;;;;2.15;1.90;;;24.20;43.80;;;;;;5039669;28;20203;-75
2022/08/09 05:40:27;;;;;;;2.88;1.92;;;24.40;43.40;;;;;;5039531;28;20211;-74
2022/08/09 05:42:56;;;;;;;2.40;2.20;;;24.50;43.00;;;;;;5039221;28;20772;-74
2022/08/09 05:45:23;;;;;;;3.97;2.03;;;24.70;42.80;;;;;;5057420;28;20210;-74
2022/08/09 05:47:50;;;;;;;2.47;2.03;;;24.80;42.50;;;;;;5039262;28;20558;-74
2022/08/09 05:50:17;;;;;;;2.95;2.33;;;24.90;42.50;;;;;;5039848;28;20210;-74
2022/08/09 05:52:44;;;;;;;2.67;2.30;;;25.00;42.40;;;;;;5039757;28;20214;-74
2022/08/09 05:55:11;;;;;;;4.30;1.83;;;25.10;42.30;;;;;;5039577;28;20229;-75
2022/08/09 05:57:38;;;;;;;2.65;1.80;;;25.30;42.10;;;;;;5022751;28;20203;-74
2022/08/09 06:00:08;;;;;;;2.55;2.13;;;25.40;41.70;;;;;;5039287;28;20658;-74
2022/08/09 06:02:41;;;;;;;3.72;2.25;;;25.60;41.40;;;;;;5039651;28;20247;-74
2022/08/09 06:05:08;;;;;;;2.30;1.88;;;25.60;41.40;;;;;;5039376;28;20276;-74
2022/08/09 06:07:36;;;;;;;2.38;1.90;;;25.70;41.20;;;;;;5040378;28;20195;-74
2022/08/09 06:10:04;;;;;;;2.60;2.00;;;25.90;41.00;;;;;;5040723;28;20199;-76
2022/08/09 06:12:31;;;;;;;2.20;2.00;;;26.10;40.90;;;;;;5052065;28;20267;-74
2022/08/09 06:14:58;;;;;;;2.63;2.03;;;26.20;40.50;;;;;;5047274;28;20194;-75
2022/08/09 06:17:27;;;;;;;2.15;1.95;;;26.40;40.40;;;;;;5039090;28;20203;-74
2022/08/09 06:19:54;;;;;;;2.38;1.90;;;26.50;40.10;;;;;;5038874;28;20199;-75
2022/08/09 06:22:21;;;;;;;2.20;2.00;;;26.60;39.90;;;;;;5038681;28;20215;-74
2022/08/09 06:24:48;;;;;;;3.72;1.88;;;26.70;39.70;;;;;;5038582;28;20578;-74
2022/08/09 06:27:15;;;;;;;2.75;2.05;;;26.80;39.50;;;;;;5038625;28;20206;-74
2022/08/09 06:29:42;;;;;;;5.72;2.30;;;27.00;39.30;;;;;;5038648;28;20254;-74
2022/08/09 06:32:10;;;;;;;2.50;1.88;;;27.10;39.00;;;;;;5056482;28;20219;-74
2022/08/09 06:34:39;;;;;;;2.17;1.83;;;27.20;38.90;;;;;;5038288;28;20666;-74
2022/08/09 06:37:06;;;;;;;2.28;2.00;;;27.20;38.60;;;;;;5038375;28;20613;-74
2022/08/09 06:39:33;;;;;;;4.22;2.13;;;27.30;38.40;;;;;;5039532;28;20206;-74
2022/08/09 06:42:00;;;;;;;4.45;2.00;;;27.50;38.30;;;;;;5038118;28;20215;-75
2022/08/09 06:44:31;;;;;;;2.70;1.98;;;27.50;38.10;;;;;;5037558;28;20290;-74
2022/08/09 06:46:58;;;;;;;2.60;2.40;;;27.60;38.00;;;;;;5021824;28;20241;-74
2022/08/09 06:49:25;;;;;;;2.45;2.10;;;27.70;38.40;;;;;;5056115;28;20645;-74
2022/08/09 06:51:53;;;;;;;3.63;2.15;;;27.80;37.70;;;;;;5037986;28;20586;-74
2022/08/09 06:54:20;;;;;;;2.20;2.00;;;27.80;37.70;;;;;;5055795;28;20193;-74
2022/08/09 06:56:47;;;;;;;2.20;2.00;;;27.90;37.50;;;;;;5037935;28;20265;-74
2022/08/09 06:59:14;;;;;;;2.67;2.05;;;28.00;37.40;;;;;;5021559;28;20191;-74
2022/08/09 07:01:41;;;;;;;2.80;2.20;;;28.10;37.30;;;;;;5055644;28;20692;-74
2022/08/09 07:04:08;;;;;;;2.50;2.30;;;28.10;37.20;;;;;;5037644;28;20199;-74
2022/08/09 07:06:35;;;;;;;3.03;2.03;;;28.20;37.10;;;;;;5037868;28;20197;-75
2022/08/09 07:09:03;;;;;;;2.95;2.33;;;28.30;37.00;;;;;;5037717;28;20207;-74
2022/08/09 07:11:30;;;;;;;2.40;2.20;;;28.30;36.80;;;;;;5022117;28;20219;-74
2022/08/09 07:13:57;;;;;;;2.30;2.08;;;28.40;36.80;;;;;;5038205;28;20222;-74
2022/08/09 07:16:24;;;;;;;2.00;1.80;;;28.40;36.70;;;;;;5037764;28;20192;-74
2022/08/09 07:18:51;;;;;;;2.42;2.22;;;28.50;36.60;;;;;;5037497;28;20286;-74
2022/08/09 07:21:18;;;;;;;2.55;2.10;;;28.60;36.50;;;;;;5037400;28;20222;-75
2022/08/09 07:23:45;;;;;;;3.25;2.10;;;28.60;36.40;;;;;;5037419;28;20206;-74
2022/08/09 07:26:13;;;;;;;2.50;2.28;;;28.70;36.90;;;;;;5037243;28;20223;-75
2022/08/09 07:28:40;;;;;;;2.85;2.30;;;28.70;36.20;;;;;;5055133;28;20187;-75
2022/08/09 07:31:07;;;;;;;2.40;2.10;;;28.80;36.10;;;;;;5037595;28;20242;-75
2022/08/09 07:33:34;;;;;;;2.22;2.03;;;28.80;35.90;;;;;;5037232;28;20205;-75
2022/08/09 07:36:01;;;;;;;1.90;1.70;;;28.90;36.00;;;;;;5037257;28;20571;-74
2022/08/09 07:38:28;;;;;;;3.25;2.10;;;29.00;35.90;;;;;;5020868;28;20289;-74
2022/08/09 07:40:55;;;;;;;2.40;2.20;;;29.00;35.80;;;;;;5055198;28;20198;-73
2022/08/09 07:43:24;;;;;;;2.50;2.28;;;29.00;35.60;;;;;;5037162;28;20195;-74
2022/08/09 07:45:51;;;;;;;2.40;2.20;;;29.10;35.60;;;;;;5054831;28;20210;-74
2022/08/09 07:48:18;;;;;;;2.45;2.17;;;29.10;35.50;;;;;;5055021;28;20198;-73
2022/08/09 07:50:44;;;;;;;2.30;2.10;;;29.20;35.40;;;;;;5055061;28;20197;-74
2022/08/09 07:53:11;;;;;;;2.88;1.90;;;29.20;35.30;;;;;;5036928;28;20198;-74
2022/08/09 07:55:38;;;;;;;2.30;2.10;;;29.30;35.30;;;;;;5054944;28;20211;-74
2022/08/09 07:58:05;;;;;;;2.00;1.90;;;29.30;35.20;;;;;;5035931;28;20210;-75
2022/08/09 08:00:33;;;;;;;1.80;1.70;;;29.30;35.10;;;;;;5054878;28;20243;-74
2022/08/09 08:03:01;;;;;;;2.45;2.10;;;29.40;35.10;;;;;;5036711;28;20689;-74
2022/08/09 08:05:28;;;;;;;1.80;1.70;;;29.40;35.00;;;;;;5036573;28;20218;-75
2022/08/09 08:07:55;;;;;;;3.15;1.95;;;29.40;34.90;;;;;;5036567;28;20206;-75
2022/08/09 08:10:22;;;;;;;2.03;1.90;;;29.50;34.90;;;;;;5054395;28;20191;-75
2022/08/09 08:12:49;;;;;;;2.25;2.05;;;29.50;34.80;;;;;;5036787;28;20700;-74
2022/08/09 08:15:17;;;;;;;2.22;1.90;;;29.50;34.70;;;;;;5054725;28;20189;-74
2022/08/09 08:17:46;;;;;;;2.35;2.03;;;29.60;34.70;;;;;;5020826;28;20241;-74
2022/08/09 08:20:13;;;;;;;2.70;2.10;;;29.60;34.60;;;;;;5054309;28;20191;-74
2022/08/09 08:22:40;;;;;;;2.17;1.90;;;29.70;34.60;;;;;;5036784;28;20221;-73
2022/08/09 08:25:08;;;;;;;2.63;1.98;;;29.70;34.60;;;;;;5064068;28;20190;-75
2022/08/09 08:27:37;;;;;;;2.10;1.90;;;29.70;34.50;;;;;;5074047;28;20183;-74
2022/08/09 08:30:05;;;;;;;3.28;1.85;;;29.70;34.40;;;;;;5037310;28;20205;-73
2022/08/09 08:32:32;;;;;;;2.33;1.92;;;29.70;34.40;;;;;;5036624;28;20648;-75
2022/08/09 08:35:01;;;;;;;2.20;2.00;;;29.80;34.40;;;;;;5036142;28;20198;-74
2022/08/09 08:37:28;;;;;;;2.33;2.10;;;29.70;34.40;;;;;;5036287;28;20220;-74
2022/08/09 08:39:55;;;;;;;2.13;1.80;;;29.70;34.40;;;;;;5036160;28;20684;-75
2022/08/09 08:42:22;;;;;;;2.17;1.90;;;29.70;34.40;;;;;;5053999;28;20811;-75
2022/08/09 08:44:51;;;;;;;1.90;1.80;;;29.80;34.40;;;;;;5036457;28;20205;-74
2022/08/09 08:47:18;;;;;;;2.00;1.85;;;29.80;34.40;;;;;;5036293;28;20198;-75
2022/08/09 08:49:45;;;;;;;2.00;1.80;;;29.80;34.30;;;;;;5036061;28;20605;-75
2022/08/09 08:52:14;;;;;;;1.98;1.80;;;29.80;34.30;;;;;;5036204;28;20211;-74
2022/08/09 08:54:41;;;;;;;1.88;1.70;;;29.90;34.30;;;;;;5035947;28;20195;-75
2022/08/09 08:57:08;;;;;;;1.90;1.73;;;29.90;34.20;;;;;;5035814;28;20194;-75
2022/08/09 08:59:35;;;;;;;1.98;1.85;;;29.90;34.20;;;;;;5036344;28;20249;-74
2022/08/09 09:02:03;;;;;;;2.42;2.22;;;29.90;34.20;;;;;;5035749;28;20219;-74
2022/08/09 09:04:31;;;;;;;2.17;1.90;;;29.90;34.20;;;;;;5035842;28;20195;-75
2022/08/09 09:06:58;;;;;;;1.80;1.70;;;29.90;34.20;;;;;;5035668;28;20214;-74
2022/08/09 09:09:27;;;;;;;1.80;1.70;;;30.00;34.30;;;;;;5035730;28;20206;-75
2022/08/09 09:11:54;;;;;;;2.33;1.90;;;30.00;34.30;;;;;;5035863;28;20223;-74
2022/08/09 09:14:23;;;;;;;2.03;1.83;;;29.90;34.20;;;;;;5035785;28;20652;-74
2022/08/09 09:16:50;;;;;;;1.95;1.75;;;30.00;34.30;;;;;;5035653;28;20233;-74
2022/08/09 09:19:17;;;;;;;1.85;1.75;;;30.00;34.20;;;;;;5035751;28;20202;-75
2022/08/09 09:21:58;;;;;;;2.10;1.90;;;30.00;34.20;;;;;;5053532;28;20695;-74
2022/08/09 09:24:29;;;;;;;3.45;1.80;;;30.00;34.30;;;;;;5035603;28;20198;-74
2022/08/09 09:26:56;;;;;;;2.10;1.90;;;30.00;34.20;;;;;;5035624;28;20224;-74
2022/08/09 09:29:28;;;;;;;1.70;1.60;;;30.00;34.20;;;;;;5035677;28;20199;-74
2022/08/09 09:31:56;;;;;;;2.58;1.90;;;30.00;34.20;;;;;;5036069;28;20280;-75
2022/08/09 09:34:22;;;;;;;2.08;1.88;;;30.00;34.20;;;;;;5035614;28;20256;-74
2022/08/09 09:36:50;;;;;;;2.17;1.70;;;30.00;34.20;;;;;;5035557;28;20203;-74
2022/08/09 09:39:17;;;;;;;2.58;1.80;;;30.00;34.20;;;;;;5035640;28;20256;-75
2022/08/09 09:41:45;;;;;;;1.92;1.80;;;30.00;34.30;;;;;;5036010;28;20317;-74
2022/08/09 09:44:13;;;;;;;1.70;1.60;;;30.00;34.30;;;;;;5036106;28;20198;-75
2022/08/09 09:46:40;;;;;;;1.92;1.50;;;30.00;34.20;;;;;;5037100;28;20219;-74
2022/08/09 09:49:09;;;;;;;1.98;1.77;;;30.00;34.30;;;;;;5037048;28;20203;-74
2022/08/09 09:51:37;;;;;;;2.00;1.90;;;30.00;34.30;;;;;;5036118;28;20223;-74
2022/08/09 09:54:06;;;;;;;2.00;1.77;;;30.00;34.30;;;;;;5035459;28;20190;-75
2022/08/09 09:56:33;;;;;;;1.70;1.60;;;29.90;34.20;;;;;;5036423;28;20195;-74
2022/08/09 09:59:01;;;;;;;2.28;1.73;;;29.90;34.20;;;;;;5035424;28;20567;-75
2022/08/09 10:01:29;;;;;;;1.80;1.70;;;29.90;34.20;;;;;;5035363;28;20225;-74
2022/08/09 10:03:56;;;;;;;1.60;1.50;;;29.90;34.30;;;;;;5053521;28;20224;-74
2022/08/09 10:06:23;;;;;;;1.63;1.52;;;29.90;34.40;;;;;;5035344;28;20214;-75
2022/08/09 10:08:50;;;;;;;1.90;1.80;;;29.90;34.50;;;;;;5035406;28;20612;-75
2022/08/09 10:11:19;;;;;;;2.45;1.95;;;29.90;34.50;;;;;;5035529;28;20226;-75
2022/08/09 10:13:46;;;;;;;1.83;1.70;;;29.90;34.60;;;;;;5053690;28;20253;-74
2022/08/09 10:16:14;;;;;;;1.67;1.58;;;29.80;34.60;;;;;;5036011;28;20570;-75
2022/08/09 10:18:50;;;;;;;1.70;1.60;;;29.80;34.70;;;;;;5035405;28;20677;-74
2022/08/09 10:21:17;;;;;;;1.70;1.60;;;29.80;34.80;;;;;;5038025;28;20258;-75
2022/08/09 10:23:44;;;;;;;1.70;1.60;;;29.70;34.80;;;;;;5038743;28;20194;-75
2022/08/09 10:26:11;;;;;;;1.90;1.80;;;29.70;34.90;;;;;;5038514;28;20282;-75
2022/08/09 10:28:40;;;;;;;1.80;1.70;;;29.70;35.00;;;;;;5022512;28;20195;-74
2022/08/09 10:31:08;;;;;;;1.92;1.45;;;29.60;35.10;;;;;;5038540;28;20711;-74
2022/08/09 10:33:36;;;;;;;2.00;1.63;;;29.60;35.10;;;;;;5038566;28;20199;-74
2022/08/09 10:36:03;;;;;;;1.67;1.58;;;29.50;35.20;;;;;;5038323;28;20198;-74
2022/08/09 10:38:30;;;;;;;1.80;1.60;;;29.50;35.30;;;;;;5038273;28;20194;-75
2022/08/09 10:40:58;;;;;;;1.60;1.50;;;29.40;35.40;;;;;;5039690;28;20548;-74
2022/08/09 10:43:25;;;;;;;2.00;1.80;;;29.40;35.50;;;;;;5022680;28;20199;-74
2022/08/09 10:45:52;;;;;;;1.60;1.50;;;29.40;35.60;;;;;;5038549;28;20217;-75
2022/08/09 10:48:22;;;;;;;1.60;1.50;;;29.30;35.70;;;;;;5038810;28;20547;-75
2022/08/09 10:51:08;;;;;;;1.90;1.60;;;29.30;35.80;;;;;;5039191;28;20230;-74
2022/08/09 10:53:58;;;;;;;1.67;1.58;;;29.30;36.00;;;;;;5056994;28;20179;-75
2022/08/09 10:56:26;;;;;;;1.60;1.50;;;29.20;36.10;;;;;;5038416;28;20237;-75
2022/08/09 10:58:54;;;;;;;1.58;1.48;;;29.10;36.10;;;;;;5038323;28;20645;-74
2022/08/09 11:01:38;;;;;;;1.60;1.50;;;29.10;36.20;;;;;;5038098;28;20280;-74
2022/08/09 11:04:17;;;;;;;1.70;1.60;;;29.00;36.30;;;;;;5037529;28;20222;-75
2022/08/09 11:06:45;;;;;;;1.48;1.40;;;29.00;36.40;;;;;;5038423;28;20218;-75
2022/08/09 11:09:15;;;;;;;1.52;1.40;;;29.00;36.50;;;;;;5037809;28;20194;-74
2022/08/09 11:12:11;;;;;;;2.35;1.63;;;28.90;36.60;;;;;;5055818;28;20206;-74
2022/08/09 11:14:40;;;;;;;1.73;1.63;;;28.90;36.80;;;;;;5038446;28;20205;-74
2022/08/09 11:17:49;;;;;;;1.52;1.42;;;28.80;36.80;;;;;;5037742;28;20225;-74
2022/08/09 11:20:18;;;;;;;1.70;1.60;;;28.80;37.00;;;;;;5037127;28;20269;-75
2022/08/09 11:23:02;;;;;;;1.50;1.40;;;28.70;37.00;;;;;;5037502;28;20218;-74
2022/08/09 11:25:46;;;;;;;1.50;1.40;;;28.70;37.20;;;;;;5037378;28;20221;-75
2022/08/09 11:28:33;;;;;;;1.55;1.45;;;28.60;37.20;;;;;;5037255;28;20539;-74
2022/08/09 11:31:01;;;;;;;1.70;1.60;;;28.60;37.30;;;;;;5037184;28;20535;-75
2022/08/09 11:33:45;;;;;;;1.60;1.50;;;28.60;37.30;;;;;;5055529;28;20661;-75
2022/08/09 11:36:12;;;;;;;1.83;1.73;;;28.60;37.40;;;;;;5036439;28;20272;-74
2022/08/09 11:38:40;;;;;;;1.70;1.60;;;28.50;37.40;;;;;;5037375;28;20202;-75
2022/08/09 11:41:27;;;;;;;1.65;1.55;;;28.50;37.50;;;;;;5037225;28;20219;-75
2022/08/09 11:43:54;;;;;;;1.63;1.52;;;28.50;37.60;;;;;;5037149;28;20625;-75
2022/08/09 11:46:21;;;;;;;1.60;1.42;;;28.50;37.70;;;;;;5036947;28;20685;-74
2022/08/09 11:48:49;;;;;;;1.40;1.40;;;28.50;37.70;;;;;;5036977;28;20206;-74
2022/08/09 11:51:16;;;;;;;1.60;1.50;;;28.50;37.70;;;;;;5037033;28;20223;-74
2022/08/09 11:53:45;;;;;;;1.67;1.58;;;28.50;37.70;;;;;;5039044;28;20225;-75
2022/08/09 11:56:25;;;;;;;1.70;1.50;;;28.40;37.70;;;;;;5038487;28;20202;-75
2022/08/09 11:58:53;;;;;;;1.52;1.42;;;28.40;37.80;;;;;;5036946;28;20248;-74
2022/08/09 12:01:30;;;;;;;1.73;1.63;;;28.40;37.80;;;;;;5036831;28;20210;-74
2022/08/09 12:03:58;;;;;;;1.40;1.30;;;28.50;37.80;;;;;;5037785;28;20194;-75
2022/08/09 12:06:26;;;;;;;1.75;1.45;;;28.40;37.80;;;;;;5036746;28;20218;-75
2022/08/09 12:08:56;;;;;;;1.50;1.40;;;28.40;37.80;;;;;;5036755;28;20289;-74
2022/08/09 12:11:24;;;;;;;1.60;1.50;;;28.40;37.80;;;;;;5036931;28;20218;-75
2022/08/09 12:13:51;;;;;;;1.75;1.60;;;28.50;38.20;;;;;;5054801;28;20210;-74
2022/08/09 12:16:19;;;;;;;1.70;1.60;;;28.40;37.90;;;;;;5037451;28;20252;-75
2022/08/09 12:18:48;;;;;;;1.60;1.50;;;28.40;37.90;;;;;;5036686;28;20297;-74
2022/08/09 12:21:25;;;;;;;1.45;1.35;;;28.40;37.90;;;;;;5036504;28;20222;-75
2022/08/09 12:23:54;;;;;;;1.50;1.40;;;28.40;38.00;;;;;;5037026;28;20208;-74
2022/08/09 12:26:21;;;;;;;1.70;1.60;;;28.40;38.00;;;;;;5036306;28;20219;-75
2022/08/09 12:28:48;;;;;;;1.85;1.63;;;28.40;38.00;;;;;;5036315;28;20202;-75
2022/08/09 12:31:22;;;;;;;1.50;1.40;;;28.40;38.10;;;;;;5054169;28;20211;-75
2022/08/09 12:33:49;;;;;;;1.33;1.23;;;28.40;38.00;;;;;;5036335;28;20202;-75
2022/08/09 12:36:16;;;;;;;1.58;1.48;;;28.30;38.10;;;;;;5036356;28;20206;-75
2022/08/09 12:38:43;;;;;;;1.40;1.30;;;28.30;38.10;;;;;;5036198;28;20210;-74
2022/08/09 12:41:12;;;;;;;1.42;1.30;;;28.30;38.20;;;;;;5036174;28;20708;-75
2022/08/09 12:43:39;;;;;;;1.50;1.40;;;28.30;38.30;;;;;;5035715;28;20237;-75
2022/08/09 12:46:06;;;;;;;1.30;1.20;;;28.30;38.30;;;;;;5036397;28;20199;-74
2022/08/09 12:48:33;;;;;;;1.80;1.70;;;28.30;38.30;;;;;;5053818;28;20191;-74
2022/08/09 12:51:00;;;;;;;1.50;1.40;;;28.30;38.50;;;;;;5036070;28;20224;-75
2022/08/09 12:53:29;;;;;;;1.38;1.35;;;28.30;38.50;;;;;;5036108;28;20201;-74
2022/08/09 12:56:12;;;;;;;1.50;1.40;;;28.30;38.60;;;;;;5036075;28;20199;-75